sensor_id;sensor_type;location;lat;lon;timestamp;pressure;altitude;pressure_sealevel;temperature;humidity
33280;BME280;20403;43.114;12.434;2022-09-12T06:03:40;99199.25;;;15.93;100.00
33280;BME280;20403;43.114;12.434;2022-09-12T06:06:06;99199.53;;;15.96;100.00
33280;BME280;20403;43.114;12.434;2022-09-12T06:08:32;99197.97;;;15.95;100.00
33280;BME280;20403;43.114;12.434;2022-09-12T06:10:58;99201.66;;;16.00;100.00
33280;BME280;20403;43.114;12.434;2022-09-12T06:13:24;99195.16;;;16.12;100.00
33280;BME280;20403;43.114;12.434;2022-09-12T06:15:50;99199.97;;;16.31;100.00
33280;BME280;20403;43.114;12.434;2022-09-12T06:18:16;99195.84;;;16.50;100.00
33280;BME280;20403;43.114;12.434;2022-09-12T06:20:41;99187.22;;;16.70;100.00
33280;BME280;20403;43.114;12.434;2022-09-12T06:23:06;99198.88;;;16.85;100.00
33280;BME280;20403;43.114;12.434;2022-09-12T06:25:31;99194.13;;;16.87;100.00
33280;BME280;20403;43.114;12.434;2022-09-12T06:27:57;99192.06;;;16.99;100.00
33280;BME280;20403;43.114;12.434;2022-09-12T06:30:22;99184.41;;;16.92;100.00
33280;BME280;20403;43.114;12.434;2022-09-12T06:32:47;99187.31;;;17.16;100.00
33280;BME280;20403;43.114;12.434;2022-09-12T06:35:12;99190.50;;;17.39;100.00
33280;BME280;20403;43.114;12.434;2022-09-12T06:37:38;99189.19;;;17.52;100.00
33280;BME280;20403;43.114;12.434;2022-09-12T06:40:04;99198.38;;;17.70;100.00
33280;BME280;20403;43.114;12.434;2022-09-12T06:42:30;99193.91;;;17.96;100.00
33280;BME280;20403;43.114;12.434;2022-09-12T06:44:56;99191.00;;;17.92;100.00
33280;BME280;20403;43.114;12.434;2022-09-12T06:47:22;99187.00;;;18.00;100.00
33280;BME280;20403;43.114;12.434;2022-09-12T06:49:47;99189.44;;;17.91;100.00
33280;BME280;20403;43.114;12.434;2022-09-12T06:52:13;99186.47;;;18.08;100.00
33280;BME280;20403;43.114;12.434;2022-09-12T06:54:38;99184.28;;;18.31;100.00
33280;BME280;20403;43.114;12.434;2022-09-12T06:57:04;99186.03;;;18.51;100.00
33280;BME280;20403;43.114;12.434;2022-09-12T06:59:29;99177.06;;;18.52;100.00
33280;BME280;20403;43.114;12.434;2022-09-12T07:01:54;99181.28;;;18.58;100.00
33280;BME280;20403;43.114;12.434;2022-09-12T07:04:20;99183.50;;;18.85;100.00
33280;BME280;20403;43.114;12.434;2022-09-12T07:06:46;99193.44;;;19.03;100.00
33280;BME280;20403;43.114;12.434;2022-09-12T07:09:12;99191.16;;;19.26;100.00
33280;BME280;20403;43.114;12.434;2022-09-12T07:11:41;99185.47;;;19.43;100.00
33280;BME280;20403;43.114;12.434;2022-09-12T07:14:06;99182.34;;;19.70;100.00
33280;BME280;20403;43.114;12.434;2022-09-12T07:16:33;99198.69;;;19.77;100.00
33280;BME280;20403;43.114;12.434;2022-09-12T07:18:59;99184.53;;;19.92;100.00
33280;BME280;20403;43.114;12.434;2022-09-12T07:21:25;99188.00;;;19.87;100.00
33280;BME280;20403;43.114;12.434;2022-09-12T07:23:51;99181.19;;;20.05;100.00
33280;BME280;20403;43.114;12.434;2022-09-12T07:26:19;99183.56;;;20.07;100.00
33280;BME280;20403;43.114;12.434;2022-09-12T07:28:44;99181.69;;;20.31;100.00
33280;BME280;20403;43.114;12.434;2022-09-12T07:31:15;99183.16;;;20.43;100.00
33280;BME280;20403;43.114;12.434;2022-09-12T07:33:42;99178.78;;;20.52;100.00
33280;BME280;20403;43.114;12.434;2022-09-12T07:36:09;99178.41;;;20.83;100.00
33280;BME280;20403;43.114;12.434;2022-09-12T07:38:35;99180.38;;;21.10;100.00
33280;BME280;20403;43.114;12.434;2022-09-12T07:41:08;99178.03;;;21.41;100.00
33280;BME280;20403;43.114;12.434;2022-09-12T07:43:35;99183.63;;;21.72;100.00
33280;BME280;20403;43.114;12.434;2022-09-12T07:46:00;99188.53;;;21.79;100.00
33280;BME280;20403;43.114;12.434;2022-09-12T07:48:26;99186.28;;;22.00;100.00
33280;BME280;20403;43.114;12.434;2022-09-12T07:50:58;99194.06;;;21.96;100.00
33280;BME280;20403;43.114;12.434;2022-09-12T07:53:24;99188.56;;;21.93;100.00
33280;BME280;20403;43.114;12.434;2022-09-12T07:55:53;99187.22;;;21.63;100.00
33280;BME280;20403;43.114;12.434;2022-09-12T07:58:19;99185.47;;;21.72;100.00
33280;BME280;20403;43.114;12.434;2022-09-12T08:00:44;99186.78;;;21.74;100.00
33280;BME280;20403;43.114;12.434;2022-09-12T08:03:09;99185.69;;;21.75;100.00
33280;BME280;20403;43.114;12.434;2022-09-12T08:05:35;99182.75;;;21.91;100.00
33280;BME280;20403;43.114;12.434;2022-09-12T08:08:01;99181.91;;;22.23;100.00
33280;BME280;20403;43.114;12.434;2022-09-12T08:10:26;99177.50;;;22.55;100.00
33280;BME280;20403;43.114;12.434;2022-09-12T08:12:51;99184.19;;;22.89;100.00
33280;BME280;20403;43.114;12.434;2022-09-12T08:15:17;99185.69;;;23.17;100.00
33280;BME280;20403;43.114;12.434;2022-09-12T08:17:44;99184.66;;;23.04;100.00
33280;BME280;20403;43.114;12.434;2022-09-12T08:20:09;99183.28;;;23.07;100.00
33280;BME280;20403;43.114;12.434;2022-09-12T08:22:34;99187.09;;;22.78;100.00
33280;BME280;20403;43.114;12.434;2022-09-12T08:24:59;99184.84;;;23.08;100.00
33280;BME280;20403;43.114;12.434;2022-09-12T08:27:25;99185.97;;;23.38;100.00
33280;BME280;20403;43.114;12.434;2022-09-12T08:29:50;99177.81;;;23.66;100.00
33280;BME280;20403;43.114;12.434;2022-09-12T08:32:15;99182.19;;;23.93;100.00
33280;BME280;20403;43.114;12.434;2022-09-12T08:34:41;99178.53;;;24.20;100.00
33280;BME280;20403;43.114;12.434;2022-09-12T08:37:06;99177.16;;;24.40;100.00
33280;BME280;20403;43.114;12.434;2022-09-12T08:39:31;99183.31;;;24.67;100.00
33280;BME280;20403;43.114;12.434;2022-09-12T08:42:00;99180.03;;;24.79;100.00
33280;BME280;20403;43.114;12.434;2022-09-12T08:51:51;99174.47;;;25.45;100.00
33280;BME280;20403;43.114;12.434;2022-09-12T08:54:22;99177.72;;;25.59;100.00
33280;BME280;20403;43.114;12.434;2022-09-12T08:56:48;99170.44;;;25.77;98.70
33280;BME280;20403;43.114;12.434;2022-09-12T08:59:15;99172.00;;;25.87;97.84
33280;BME280;20403;43.114;12.434;2022-09-12T09:01:41;99172.00;;;25.78;95.10
33280;BME280;20403;43.114;12.434;2022-09-12T09:11:37;99176.28;;;25.70;85.39
33280;BME280;20403;43.114;12.434;2022-09-12T09:14:16;99179.28;;;26.07;78.93
33280;BME280;20403;43.114;12.434;2022-09-12T09:17:02;99179.47;;;26.02;76.21
33280;BME280;20403;43.114;12.434;2022-09-12T09:19:35;99167.91;;;25.89;85.93
33280;BME280;20403;43.114;12.434;2022-09-12T09:22:06;99175.97;;;26.10;73.05
33280;BME280;20403;43.114;12.434;2022-09-12T09:24:40;99166.63;;;26.46;67.61
33280;BME280;20403;43.114;12.434;2022-09-12T09:27:15;99173.03;;;26.75;72.78
33280;BME280;20403;43.114;12.434;2022-09-12T09:29:44;99169.47;;;26.41;56.76
33280;BME280;20403;43.114;12.434;2022-09-12T09:32:13;99169.19;;;26.64;68.82
33280;BME280;20403;43.114;12.434;2022-09-12T09:34:41;99162.66;;;26.73;65.76
33280;BME280;20403;43.114;12.434;2022-09-12T09:37:14;99164.75;;;26.68;66.18
33280;BME280;20403;43.114;12.434;2022-09-12T09:44:48;99158.31;;;27.02;59.25
33280;BME280;20403;43.114;12.434;2022-09-12T09:47:16;99154.97;;;27.05;51.14
33280;BME280;20403;43.114;12.434;2022-09-12T09:49:41;99153.44;;;27.16;50.12
33280;BME280;20403;43.114;12.434;2022-09-12T09:52:07;99144.25;;;27.26;56.50
33280;BME280;20403;43.114;12.434;2022-09-12T09:54:36;99144.66;;;27.61;57.28
33280;BME280;20403;43.114;12.434;2022-09-12T09:57:03;99146.75;;;28.05;60.16
33280;BME280;20403;43.114;12.434;2022-09-12T09:59:32;99153.44;;;28.36;57.35
33280;BME280;20403;43.114;12.434;2022-09-12T10:01:59;99148.16;;;28.39;48.09
33280;BME280;20403;43.114;12.434;2022-09-12T10:04:34;99144.41;;;28.68;45.94
33280;BME280;20403;43.114;12.434;2022-09-12T10:07:01;99135.41;;;28.61;40.62
33280;BME280;20403;43.114;12.434;2022-09-12T10:09:35;99150.50;;;28.41;42.91
33280;BME280;20403;43.114;12.434;2022-09-12T10:12:18;99149.28;;;28.38;44.90
33280;BME280;20403;43.114;12.434;2022-09-12T10:14:43;99143.28;;;28.29;40.98
33280;BME280;20403;43.114;12.434;2022-09-12T10:17:21;99145.84;;;28.38;38.82
33280;BME280;20403;43.114;12.434;2022-09-12T10:19:47;99146.22;;;28.64;43.25
33280;BME280;20403;43.114;12.434;2022-09-12T10:22:17;99140.91;;;28.80;39.62
33280;BME280;20403;43.114;12.434;2022-09-12T10:24:48;99135.53;;;29.08;36.73
33280;BME280;20403;43.114;12.434;2022-09-12T10:27:15;99130.59;;;29.10;31.57
33280;BME280;20403;43.114;12.434;2022-09-12T10:29:54;99128.97;;;29.22;31.41
33280;BME280;20403;43.114;12.434;2022-09-12T10:32:25;99125.59;;;29.41;33.69
33280;BME280;20403;43.114;12.434;2022-09-12T10:34:53;99118.91;;;29.19;29.80
33280;BME280;20403;43.114;12.434;2022-09-12T10:37:25;99116.41;;;29.42;34.94
33280;BME280;20403;43.114;12.434;2022-09-12T10:39:53;99120.81;;;29.66;33.42
33280;BME280;20403;43.114;12.434;2022-09-12T10:45:11;99118.72;;;29.59;30.82
33280;BME280;20403;43.114;12.434;2022-09-12T10:47:41;99109.38;;;29.69;33.50
33280;BME280;20403;43.114;12.434;2022-09-12T10:50:24;99108.53;;;30.00;34.36
33280;BME280;20403;43.114;12.434;2022-09-12T10:52:52;99102.88;;;29.86;30.65
33280;BME280;20403;43.114;12.434;2022-09-12T10:55:20;99105.81;;;30.16;28.85
33280;BME280;20403;43.114;12.434;2022-09-12T10:57:57;99104.47;;;30.26;34.06
33280;BME280;20403;43.114;12.434;2022-09-12T11:00:25;99105.88;;;30.20;30.82
33280;BME280;20403;43.114;12.434;2022-09-12T11:03:05;99101.78;;;30.26;26.65
33280;BME280;20403;43.114;12.434;2022-09-12T11:10:33;99097.09;;;30.81;30.29
33280;BME280;20403;43.114;12.434;2022-09-12T11:13:26;99103.00;;;31.10;31.00
33280;BME280;20403;43.114;12.434;2022-09-12T11:19:11;99094.09;;;31.29;27.99
33280;BME280;20403;43.114;12.434;2022-09-12T11:24:08;99090.66;;;31.32;29.71
33280;BME280;20403;43.114;12.434;2022-09-12T11:26:46;99092.50;;;31.47;31.71
33280;BME280;20403;43.114;12.434;2022-09-12T11:34:35;99089.56;;;31.86;27.81
33280;BME280;20403;43.114;12.434;2022-09-12T11:37:07;99087.22;;;32.11;25.64
33280;BME280;20403;43.114;12.434;2022-09-12T11:39:39;99085.78;;;32.21;26.26
33280;BME280;20403;43.114;12.434;2022-09-12T11:42:08;99089.16;;;32.11;26.49
33280;BME280;20403;43.114;12.434;2022-09-12T11:44:39;99082.72;;;31.92;23.51
33280;BME280;20403;43.114;12.434;2022-09-12T11:47:12;99081.09;;;31.88;23.00
33280;BME280;20403;43.114;12.434;2022-09-12T11:49:43;99077.34;;;32.22;24.69
33280;BME280;20403;43.114;12.434;2022-09-12T12:03:02;99071.03;;;32.45;25.26
33280;BME280;20403;43.114;12.434;2022-09-12T12:05:33;99071.53;;;32.20;24.42
33280;BME280;20403;43.114;12.434;2022-09-12T12:08:00;99065.50;;;32.31;22.43
33280;BME280;20403;43.114;12.434;2022-09-12T12:10:36;99059.75;;;32.36;24.23
33280;BME280;20403;43.114;12.434;2022-09-12T12:13:06;99060.78;;;32.58;24.86
33280;BME280;20403;43.114;12.434;2022-09-12T12:15:34;99055.88;;;33.08;25.64
33280;BME280;20403;43.114;12.434;2022-09-12T12:20:26;99051.75;;;32.80;24.04
33280;BME280;20403;43.114;12.434;2022-09-12T12:22:52;99052.75;;;33.06;25.35
33280;BME280;20403;43.114;12.434;2022-09-12T12:27:57;99046.06;;;32.93;23.43
33280;BME280;20403;43.114;12.434;2022-09-12T12:33:06;99038.13;;;33.07;25.70
33280;BME280;20403;43.114;12.434;2022-09-12T12:41:41;99037.63;;;32.57;26.68
33280;BME280;20403;43.114;12.434;2022-09-12T12:43:50;99030.75;;;32.63;25.21
33280;BME280;20403;43.114;12.434;2022-09-12T12:46:17;99033.34;;;32.93;26.17
33280;BME280;20403;43.114;12.434;2022-09-12T12:48:56;99027.00;;;32.75;26.36
33280;BME280;20403;43.114;12.434;2022-09-12T12:53:58;99033.38;;;32.56;27.27
33280;BME280;20403;43.114;12.434;2022-09-12T12:56:25;99022.84;;;32.84;25.47
33280;BME280;20403;43.114;12.434;2022-09-12T12:58:58;99017.00;;;32.79;25.14
33280;BME280;20403;43.114;12.434;2022-09-12T13:01:25;99019.19;;;33.07;25.19
33280;BME280;20403;43.114;12.434;2022-09-12T13:04:02;99022.56;;;32.97;26.47
33280;BME280;20403;43.114;12.434;2022-09-12T13:06:33;99015.88;;;33.32;24.19
33280;BME280;20403;43.114;12.434;2022-09-12T13:09:07;99010.94;;;33.48;23.40
33280;BME280;20403;43.114;12.434;2022-09-12T13:11:37;99013.16;;;33.32;24.46
33280;BME280;20403;43.114;12.434;2022-09-12T13:14:03;99014.16;;;33.61;24.36
33280;BME280;20403;43.114;12.434;2022-09-12T13:16:35;99012.88;;;33.44;24.34
33280;BME280;20403;43.114;12.434;2022-09-12T13:19:10;99010.63;;;32.57;22.91
33280;BME280;20403;43.114;12.434;2022-09-12T13:21:36;99007.25;;;32.30;23.46
33280;BME280;20403;43.114;12.434;2022-09-12T13:24:21;99007.47;;;32.14;24.92
33280;BME280;20403;43.114;12.434;2022-09-12T13:26:46;99011.94;;;32.33;24.78
33280;BME280;20403;43.114;12.434;2022-09-12T13:29:15;99001.44;;;32.28;25.93
33280;BME280;20403;43.114;12.434;2022-09-12T13:31:41;98998.78;;;31.97;23.58
33280;BME280;20403;43.114;12.434;2022-09-12T13:34:06;99006.53;;;31.69;23.66
33280;BME280;20403;43.114;12.434;2022-09-12T13:36:39;99000.81;;;31.74;24.70
33280;BME280;20403;43.114;12.434;2022-09-12T13:41:55;98991.94;;;31.73;27.56
33280;BME280;20403;43.114;12.434;2022-09-12T13:44:27;98987.50;;;31.58;24.69
33280;BME280;20403;43.114;12.434;2022-09-12T13:46:53;98988.41;;;31.69;26.72
33280;BME280;20403;43.114;12.434;2022-09-12T13:52:15;98977.88;;;31.91;29.39
33280;BME280;20403;43.114;12.434;2022-09-12T13:54:43;98973.56;;;31.52;24.56
33280;BME280;20403;43.114;12.434;2022-09-12T13:57:25;98980.97;;;31.59;25.72
33280;BME280;20403;43.114;12.434;2022-09-12T13:59:53;98975.97;;;31.61;26.15
33280;BME280;20403;43.114;12.434;2022-09-12T14:02:20;98971.22;;;31.51;27.19
33280;BME280;20403;43.114;12.434;2022-09-12T14:04:46;98973.25;;;31.57;27.31
33280;BME280;20403;43.114;12.434;2022-09-12T14:07:30;98965.94;;;31.31;25.64
33280;BME280;20403;43.114;12.434;2022-09-12T14:09:59;98972.31;;;31.19;23.78
33280;BME280;20403;43.114;12.434;2022-09-12T14:12:33;98966.91;;;30.93;23.48
33280;BME280;20403;43.114;12.434;2022-09-12T14:15:00;98962.91;;;30.83;24.44
33280;BME280;20403;43.114;12.434;2022-09-12T14:19:55;98961.44;;;30.66;26.11
33280;BME280;20403;43.114;12.434;2022-09-12T14:22:26;98957.75;;;30.74;27.25
33280;BME280;20403;43.114;12.434;2022-09-12T14:24:54;98946.38;;;30.62;25.18
33280;BME280;20403;43.114;12.434;2022-09-12T14:27:23;98946.34;;;30.58;28.40
33280;BME280;20403;43.114;12.434;2022-09-12T14:29:52;98947.41;;;30.53;29.06
33280;BME280;20403;43.114;12.434;2022-09-12T14:32:23;98945.25;;;30.40;27.17
33280;BME280;20403;43.114;12.434;2022-09-12T14:37:33;98947.47;;;30.14;33.40
33280;BME280;20403;43.114;12.434;2022-09-12T14:39:58;98943.44;;;30.05;33.24
33280;BME280;20403;43.114;12.434;2022-09-12T14:42:25;98940.91;;;29.92;35.29
33280;BME280;20403;43.114;12.434;2022-09-12T14:44:57;98942.75;;;29.69;38.22
33280;BME280;20403;43.114;12.434;2022-09-12T14:47:25;98934.00;;;29.56;40.60
33280;BME280;20403;43.114;12.434;2022-09-12T14:49:51;98932.78;;;29.34;43.97
33280;BME280;20403;43.114;12.434;2022-09-12T14:52:22;98933.25;;;29.20;42.44
33280;BME280;20403;43.114;12.434;2022-09-12T14:57:33;98934.50;;;28.91;40.35
33280;BME280;20403;43.114;12.434;2022-09-12T15:00:32;98935.97;;;28.73;46.78
33280;BME280;20403;43.114;12.434;2022-09-12T15:02:51;98933.94;;;28.54;44.93
33280;BME280;20403;43.114;12.434;2022-09-12T15:07:58;98931.84;;;28.31;44.60
33280;BME280;20403;43.114;12.434;2022-09-12T15:10:28;98934.97;;;28.05;48.52
33280;BME280;20403;43.114;12.434;2022-09-12T15:15:29;98930.91;;;27.83;47.14
33280;BME280;20403;43.114;12.434;2022-09-12T15:17:54;98930.31;;;27.61;41.03
33280;BME280;20403;43.114;12.434;2022-09-12T15:20:20;98929.56;;;27.49;45.24
33280;BME280;20403;43.114;12.434;2022-09-12T15:22:45;98932.72;;;27.38;47.17
33280;BME280;20403;43.114;12.434;2022-09-12T15:25:11;98923.91;;;27.26;47.20
33280;BME280;20403;43.114;12.434;2022-09-12T15:27:36;98934.03;;;27.08;45.07
33280;BME280;20403;43.114;12.434;2022-09-12T15:30:05;98927.94;;;26.95;43.12
33280;BME280;20403;43.114;12.434;2022-09-12T15:32:30;98929.25;;;26.76;45.32
33280;BME280;20403;43.114;12.434;2022-09-12T15:34:55;98927.69;;;26.63;45.47
33280;BME280;20403;43.114;12.434;2022-09-12T15:37:21;98925.88;;;26.55;45.18
33280;BME280;20403;43.114;12.434;2022-09-12T15:39:47;98930.16;;;26.35;47.28
33280;BME280;20403;43.114;12.434;2022-09-12T15:42:13;98921.66;;;26.20;46.28
33280;BME280;20403;43.114;12.434;2022-09-12T15:44:38;98925.47;;;25.98;44.21
33280;BME280;20403;43.114;12.434;2022-09-12T15:47:04;98924.81;;;25.81;43.13
33280;BME280;20403;43.114;12.434;2022-09-12T15:49:29;98926.50;;;25.64;47.59
33280;BME280;20403;43.114;12.434;2022-09-12T15:51:55;98921.31;;;25.47;45.34
33280;BME280;20403;43.114;12.434;2022-09-12T15:54:21;98924.22;;;25.33;47.15
33280;BME280;20403;43.114;12.434;2022-09-12T15:56:46;98921.44;;;25.21;48.24
33280;BME280;20403;43.114;12.434;2022-09-12T15:59:11;98926.38;;;25.10;54.00
33280;BME280;20403;43.114;12.434;2022-09-12T16:01:37;98914.31;;;25.04;49.75
33280;BME280;20403;43.114;12.434;2022-09-12T16:04:03;98922.22;;;24.91;52.52
33280;BME280;20403;43.114;12.434;2022-09-12T16:06:28;98926.34;;;24.80;50.45
33280;BME280;20403;43.114;12.434;2022-09-12T16:08:55;98930.16;;;24.70;53.63
33280;BME280;20403;43.114;12.434;2022-09-12T16:11:24;98925.81;;;24.57;55.06
33280;BME280;20403;43.114;12.434;2022-09-12T16:13:53;98918.59;;;24.49;62.88
33280;BME280;20403;43.114;12.434;2022-09-12T16:16:18;98925.03;;;24.39;63.47
33280;BME280;20403;43.114;12.434;2022-09-12T16:18:44;98923.34;;;24.17;71.67
33280;BME280;20403;43.114;12.434;2022-09-12T16:21:09;98922.44;;;24.04;72.81
33280;BME280;20403;43.114;12.434;2022-09-12T16:23:35;98918.22;;;23.95;83.36
33280;BME280;20403;43.114;12.434;2022-09-12T16:26:01;98914.47;;;23.78;92.16
33280;BME280;20403;43.114;12.434;2022-09-12T16:28:27;98919.91;;;23.64;90.99
33280;BME280;20403;43.114;12.434;2022-09-12T16:30:59;98913.16;;;23.58;91.24
33280;BME280;20403;43.114;12.434;2022-09-12T16:33:24;98910.00;;;23.47;100.00
33280;BME280;20403;43.114;12.434;2022-09-12T16:35:50;98919.72;;;23.35;100.00
33280;BME280;20403;43.114;12.434;2022-09-12T16:38:18;98912.47;;;23.18;100.00
33280;BME280;20403;43.114;12.434;2022-09-12T16:40:44;98921.06;;;23.06;100.00
33280;BME280;20403;43.114;12.434;2022-09-12T16:43:09;98916.25;;;22.85;100.00
33280;BME280;20403;43.114;12.434;2022-09-12T16:45:35;98916.38;;;22.72;100.00
33280;BME280;20403;43.114;12.434;2022-09-12T16:48:00;98920.31;;;22.52;100.00
33280;BME280;20403;43.114;12.434;2022-09-12T16:50:25;98918.38;;;22.43;100.00
33280;BME280;20403;43.114;12.434;2022-09-12T16:52:53;98920.22;;;22.34;100.00
33280;BME280;20403;43.114;12.434;2022-09-12T16:55:18;98916.97;;;22.37;100.00
33280;BME280;20403;43.114;12.434;2022-09-12T16:57:43;98911.31;;;22.30;100.00
33280;BME280;20403;43.114;12.434;2022-09-12T17:00:10;98915.50;;;22.09;100.00
33280;BME280;20403;43.114;12.434;2022-09-12T17:02:35;98918.09;;;22.00;100.00
33280;BME280;20403;43.114;12.434;2022-09-12T17:05:00;98913.13;;;21.85;100.00
33280;BME280;20403;43.114;12.434;2022-09-12T17:07:26;98916.97;;;21.78;100.00
33280;BME280;20403;43.114;12.434;2022-09-12T17:09:51;98914.84;;;21.67;100.00
33280;BME280;20403;43.114;12.434;2022-09-12T17:12:17;98909.19;;;21.59;100.00
33280;BME280;20403;43.114;12.434;2022-09-12T17:14:42;98916.00;;;21.52;100.00
33280;BME280;20403;43.114;12.434;2022-09-12T17:17:07;98908.31;;;21.36;100.00
33280;BME280;20403;43.114;12.434;2022-09-12T17:19:33;98908.22;;;21.28;100.00
33280;BME280;20403;43.114;12.434;2022-09-12T17:21:58;98908.72;;;21.16;100.00
33280;BME280;20403;43.114;12.434;2022-09-12T17:24:23;98904.03;;;21.13;100.00
33280;BME280;20403;43.114;12.434;2022-09-12T17:26:49;98905.31;;;20.88;100.00
33280;BME280;20403;43.114;12.434;2022-09-12T17:29:15;98904.13;;;20.80;100.00
33280;BME280;20403;43.114;12.434;2022-09-12T17:31:41;98903.72;;;20.73;100.00
33280;BME280;20403;43.114;12.434;2022-09-12T17:34:07;98901.75;;;20.65;100.00
33280;BME280;20403;43.114;12.434;2022-09-12T17:36:33;98904.78;;;20.58;100.00
33280;BME280;20403;43.114;12.434;2022-09-12T17:38:58;98909.75;;;20.46;100.00
33280;BME280;20403;43.114;12.434;2022-09-12T17:41:25;98908.16;;;20.45;100.00
33280;BME280;20403;43.114;12.434;2022-09-12T17:43:52;98908.16;;;20.45;100.00
33280;BME280;20403;43.114;12.434;2022-09-12T17:46:19;98911.69;;;20.54;100.00
33280;BME280;20403;43.114;12.434;2022-09-12T17:48:51;98917.38;;;20.66;100.00
33280;BME280;20403;43.114;12.434;2022-09-12T17:51:17;98914.94;;;20.51;100.00
33280;BME280;20403;43.114;12.434;2022-09-12T17:53:42;98921.22;;;20.41;100.00
33280;BME280;20403;43.114;12.434;2022-09-12T17:56:08;98923.63;;;20.38;100.00
33280;BME280;20403;43.114;12.434;2022-09-12T17:58:34;98923.09;;;20.22;100.00
33280;BME280;20403;43.114;12.434;2022-09-12T18:01:03;98923.78;;;20.13;100.00
33280;BME280;20403;43.114;12.434;2022-09-12T18:03:47;98925.50;;;20.04;100.00
33280;BME280;20403;43.114;12.434;2022-09-12T18:06:12;98929.66;;;20.10;100.00
33280;BME280;20403;43.114;12.434;2022-09-12T18:08:39;98928.28;;;19.75;100.00
33280;BME280;20403;43.114;12.434;2022-09-12T18:11:04;98924.44;;;19.86;100.00
33280;BME280;20403;43.114;12.434;2022-09-12T18:13:33;98929.38;;;19.93;100.00
33280;BME280;20403;43.114;12.434;2022-09-12T18:16:05;98933.09;;;19.92;100.00
33280;BME280;20403;43.114;12.434;2022-09-12T18:18:31;98942.44;;;19.84;100.00
33280;BME280;20403;43.114;12.434;2022-09-12T18:20:57;98940.72;;;19.93;100.00
33280;BME280;20403;43.114;12.434;2022-09-12T18:23:22;98946.75;;;19.80;100.00
33280;BME280;20403;43.114;12.434;2022-09-12T18:25:47;98952.59;;;19.77;100.00
33280;BME280;20403;43.114;12.434;2022-09-12T18:28:13;98953.03;;;19.84;100.00
33280;BME280;20403;43.114;12.434;2022-09-12T18:30:39;98963.41;;;19.81;100.00
33280;BME280;20403;43.114;12.434;2022-09-12T18:33:04;98959.53;;;19.73;100.00
33280;BME280;20403;43.114;12.434;2022-09-12T18:35:29;98966.06;;;19.57;100.00
33280;BME280;20403;43.114;12.434;2022-09-12T18:37:56;98964.06;;;19.48;100.00
33280;BME280;20403;43.114;12.434;2022-09-12T18:40:21;98961.50;;;19.43;100.00
33280;BME280;20403;43.114;12.434;2022-09-12T18:42:46;98970.09;;;19.30;100.00
33280;BME280;20403;43.114;12.434;2022-09-12T18:45:11;98968.91;;;19.41;100.00
33280;BME280;20403;43.114;12.434;2022-09-12T18:47:37;98963.72;;;19.31;100.00
33280;BME280;20403;43.114;12.434;2022-09-12T18:50:02;98973.88;;;19.24;100.00
33280;BME280;20403;43.114;12.434;2022-09-12T18:52:27;98978.69;;;19.17;100.00
33280;BME280;20403;43.114;12.434;2022-09-12T18:54:53;98981.78;;;19.00;100.00
33280;BME280;20403;43.114;12.434;2022-09-12T18:57:18;98983.03;;;19.07;100.00
33280;BME280;20403;43.114;12.434;2022-09-12T18:59:43;98982.84;;;18.99;100.00
33280;BME280;20403;43.114;12.434;2022-09-12T19:02:11;98988.75;;;18.91;100.00
33280;BME280;20403;43.114;12.434;2022-09-12T19:04:39;98986.50;;;19.03;100.00
33280;BME280;20403;43.114;12.434;2022-09-12T19:07:04;98988.44;;;18.97;100.00
33280;BME280;20403;43.114;12.434;2022-09-12T19:09:29;98987.47;;;18.83;100.00
33280;BME280;20403;43.114;12.434;2022-09-12T19:11:55;98996.31;;;18.68;100.00
33280;BME280;20403;43.114;12.434;2022-09-12T19:14:21;98992.28;;;18.41;100.00
33280;BME280;20403;43.114;12.434;2022-09-12T19:16:47;98995.75;;;18.37;100.00
33280;BME280;20403;43.114;12.434;2022-09-12T19:19:12;98998.38;;;18.42;100.00
33280;BME280;20403;43.114;12.434;2022-09-12T19:21:37;99003.84;;;18.51;100.00
33280;BME280;20403;43.114;12.434;2022-09-12T19:24:04;99003.41;;;18.73;100.00
33280;BME280;20403;43.114;12.434;2022-09-12T19:26:30;99007.84;;;18.82;100.00
33280;BME280;20403;43.114;12.434;2022-09-12T19:28:56;99005.50;;;18.81;100.00
33280;BME280;20403;43.114;12.434;2022-09-12T19:31:21;99002.63;;;18.72;100.00
33280;BME280;20403;43.114;12.434;2022-09-12T19:33:47;99006.97;;;18.58;100.00
33280;BME280;20403;43.114;12.434;2022-09-12T19:36:14;99005.16;;;18.53;100.00
33280;BME280;20403;43.114;12.434;2022-09-12T19:38:39;99008.28;;;18.60;100.00
33280;BME280;20403;43.114;12.434;2022-09-12T19:41:06;99015.53;;;18.74;100.00
33280;BME280;20403;43.114;12.434;2022-09-12T19:43:31;99018.28;;;18.63;100.00
33280;BME280;20403;43.114;12.434;2022-09-12T19:45:57;99011.50;;;18.52;100.00
33280;BME280;20403;43.114;12.434;2022-09-12T19:48:23;99014.56;;;18.64;100.00
33280;BME280;20403;43.114;12.434;2022-09-12T19:50:48;99018.63;;;18.52;100.00
33280;BME280;20403;43.114;12.434;2022-09-12T19:53:14;99028.00;;;18.68;100.00
33280;BME280;20403;43.114;12.434;2022-09-12T19:55:40;99015.91;;;18.62;100.00
33280;BME280;20403;43.114;12.434;2022-09-12T19:58:06;99025.94;;;18.60;100.00
33280;BME280;20403;43.114;12.434;2022-09-12T20:00:32;99027.84;;;18.54;100.00
33280;BME280;20403;43.114;12.434;2022-09-12T20:02:58;99027.13;;;18.43;100.00
33280;BME280;20403;43.114;12.434;2022-09-12T20:05:23;99025.91;;;18.31;100.00
33280;BME280;20403;43.114;12.434;2022-09-12T20:07:48;99032.22;;;18.35;100.00
33280;BME280;20403;43.114;12.434;2022-09-12T20:10:13;99038.31;;;18.30;100.00
33280;BME280;20403;43.114;12.434;2022-09-12T20:12:39;99029.31;;;18.31;100.00
33280;BME280;20403;43.114;12.434;2022-09-12T20:15:04;99040.09;;;18.40;100.00